createdAt,value
2022-12-14T00:00:24.101Z,87.50
2022-12-14T00:06:27.806Z,87.96
2022-12-14T00:11:48.329Z,87.79
2022-12-14T00:14:23.264Z,87.43
2022-12-14T00:16:55.836Z,87.17
2022-12-14T00:19:32.377Z,87.65
2022-12-14T00:22:06.348Z,87.43
2022-12-14T00:24:44.194Z,87.12
2022-12-14T00:27:15.783Z,87.17
2022-12-14T00:29:44.840Z,86.82
2022-12-14T00:32:11.943Z,87.04
2022-12-14T00:34:57.783Z,86.62
2022-12-14T00:44:05.997Z,87.12
2022-12-14T00:46:44.750Z,86.76
2022-12-14T00:52:33.799Z,86.47
2022-12-14T01:15:15.178Z,87.20
2022-12-14T01:17:41.816Z,86.36
2022-12-14T01:20:12.171Z,86.40
2022-12-14T01:22:39.070Z,86.50
2022-12-14T01:25:12.330Z,86.94
2022-12-14T01:31:19.395Z,86.18
2022-12-14T01:34:03.850Z,86.45
2022-12-14T01:36:45.576Z,86.28
2022-12-14T01:54:11.572Z,86.58
2022-12-14T02:03:16.171Z,85.80
2022-12-14T02:16:04.237Z,85.56
2022-12-14T02:18:50.403Z,85.77
2022-12-14T02:21:52.269Z,85.54
2022-12-14T02:25:13.332Z,86.02
2022-12-14T02:28:41.894Z,86.31
2022-12-14T02:31:37.310Z,86.25
2022-12-14T02:34:30.432Z,86.54
2022-12-14T02:37:31.034Z,86.81
2022-12-14T02:43:41.219Z,86.88
2022-12-14T02:46:52.181Z,86.84
2022-12-14T02:57:00.507Z,87.30
2022-12-14T03:02:56.284Z,87.68
2022-12-14T03:09:14.426Z,87.00
2022-12-14T03:12:26.016Z,86.88
2022-12-14T03:18:43.816Z,87.26
2022-12-14T03:22:05.943Z,87.41
2022-12-14T03:24:46.004Z,86.51
2022-12-14T03:28:04.298Z,86.27
2022-12-14T03:31:36.226Z,86.84
2022-12-14T03:34:54.763Z,86.62
2022-12-14T03:50:58.144Z,86.89
2022-12-14T04:16:34.199Z,86.71
2022-12-14T04:19:30.248Z,86.65
2022-12-14T04:22:22.015Z,87.19
2022-12-14T04:32:15.098Z,86.57
2022-12-14T04:35:13.159Z,86.63
2022-12-14T04:38:43.999Z,86.23
2022-12-14T04:44:54.991Z,86.32
2022-12-14T04:54:46.955Z,85.88
2022-12-14T04:58:00.722Z,86.63
2022-12-14T05:04:15.569Z,85.65
2022-12-14T05:07:44.532Z,85.71
2022-12-14T05:14:08.870Z,85.96
2022-12-14T05:20:36.403Z,85.41
2022-12-14T05:26:31.843Z,85.79
2022-12-14T05:29:16.799Z,86.03
2022-12-14T05:33:05.245Z,85.78
2022-12-14T05:38:58.742Z,85.42
2022-12-14T05:41:47.175Z,85.51
2022-12-14T05:50:54.626Z,85.21
2022-12-14T05:53:59.395Z,85.33
2022-12-14T05:57:35.548Z,85.28
2022-12-14T06:00:33.240Z,85.60
2022-12-14T06:03:12.662Z,85.56
2022-12-14T06:05:44.209Z,85.77
2022-12-14T06:11:34.220Z,85.86
2022-12-14T06:14:17.239Z,85.57
2022-12-14T06:16:57.442Z,85.24
2022-12-14T06:19:40.276Z,85.81
2022-12-14T06:22:22.288Z,85.55
2022-12-14T06:25:01.267Z,85.46
2022-12-14T06:28:04.083Z,86.00
2022-12-14T06:30:54.627Z,85.82
2022-12-14T06:33:26.385Z,85.92
2022-12-14T06:35:58.538Z,85.84
2022-12-14T06:38:36.680Z,85.74
2022-12-14T06:41:33.920Z,85.58
2022-12-14T06:44:13.599Z,85.56
2022-12-14T06:46:50.479Z,85.39
2022-12-14T06:52:48.987Z,85.71
2022-12-14T06:55:19.305Z,85.52
2022-12-14T06:57:51.778Z,86.04
2022-12-14T07:00:27.745Z,85.57
2022-12-14T07:03:06.872Z,85.56
2022-12-14T07:06:33.745Z,85.31
2022-12-14T07:09:11.905Z,85.51
2022-12-14T07:14:28.430Z,85.21
2022-12-14T07:17:06.655Z,85.71
2022-12-14T07:20:04.173Z,85.19
2022-12-14T07:22:44.288Z,85.27
2022-12-14T07:25:48.028Z,84.81
2022-12-14T07:32:10.182Z,84.86
2022-12-14T07:35:24.405Z,85.35
2022-12-14T07:38:08.870Z,84.87
2022-12-14T07:40:44.591Z,84.98
2022-12-14T07:43:27.782Z,85.16
2022-12-14T07:46:36.074Z,85.05
2022-12-14T07:49:41.050Z,84.88
2022-12-14T07:52:34.177Z,85.02
2022-12-14T08:01:48.771Z,84.76
2022-12-14T08:04:22.660Z,85.46
2022-12-14T08:07:16.693Z,85.21
2022-12-14T08:10:04.094Z,85.27
2022-12-14T08:13:10.079Z,85.42
2022-12-14T08:15:42.320Z,85.36
2022-12-14T08:18:12.399Z,85.04
2022-12-14T08:20:53.093Z,85.17
2022-12-14T08:23:41.432Z,85.21
2022-12-14T08:26:18.850Z,85.88
2022-12-14T08:32:08.661Z,85.11
2022-12-14T08:37:27.613Z,85.40
2022-12-14T08:39:55.206Z,84.93
2022-12-14T08:42:33.305Z,85.17
2022-12-14T08:45:05.536Z,85.32
2022-12-14T08:47:42.650Z,84.96
2022-12-14T08:50:13.252Z,85.87
2022-12-14T08:52:49.380Z,85.02
2022-12-14T08:58:44.566Z,85.49
2022-12-14T09:01:54.224Z,85.74
2022-12-14T09:05:15.579Z,85.72
2022-12-14T09:08:02.101Z,86.28
2022-12-14T09:14:06.315Z,85.57
2022-12-14T09:20:22.818Z,85.99
2022-12-14T09:23:43.554Z,86.04
2022-12-14T09:29:59.178Z,86.87
2022-12-14T09:32:39.963Z,86.64
2022-12-14T09:37:54.269Z,87.01
2022-12-14T09:40:40.772Z,86.29
2022-12-14T09:43:19.476Z,86.63
2022-12-14T09:46:04.680Z,86.68
2022-12-14T09:51:37.115Z,87.04
2022-12-14T09:54:21.371Z,86.57
2022-12-14T09:59:59.469Z,86.90
2022-12-14T10:02:39.396Z,86.94
2022-12-14T10:05:40.927Z,86.66
2022-12-14T10:08:34.804Z,86.98
2022-12-14T10:11:27.985Z,86.85
2022-12-14T10:14:26.083Z,87.27
2022-12-14T10:17:07.161Z,87.30
2022-12-14T10:22:44.229Z,87.40
2022-12-14T10:25:23.098Z,87.42
2022-12-14T10:28:10.800Z,86.94
2022-12-14T10:30:42.837Z,86.57
2022-12-14T10:33:22.218Z,86.92
2022-12-14T10:35:54.282Z,86.39
2022-12-14T10:38:27.446Z,86.32
2022-12-14T10:41:04.265Z,87.04
2022-12-14T10:47:22.487Z,86.13
2022-12-14T10:50:26.437Z,86.44
2022-12-14T10:53:05.468Z,86.82
2022-12-14T11:06:06.905Z,86.52
2022-12-14T11:12:58.071Z,86.64
2022-12-14T11:16:21.677Z,86.25
2022-12-14T11:19:30.891Z,86.33
2022-12-14T11:22:21.950Z,85.93
2022-12-14T11:24:53.871Z,85.94
2022-12-14T11:27:21.681Z,85.87
2022-12-14T11:29:50.620Z,85.59
2022-12-14T11:32:23.126Z,85.95
2022-12-14T11:34:55.939Z,85.98
2022-12-14T11:37:29.798Z,86.16
2022-12-14T11:39:59.128Z,85.89
2022-12-14T11:42:26.742Z,85.67
2022-12-14T11:45:18.885Z,85.41
2022-12-14T11:47:54.647Z,85.47
2022-12-14T11:50:31.403Z,85.87
2022-12-14T11:53:11.209Z,85.48
2022-12-14T11:55:45.579Z,85.74
2022-12-14T11:58:17.343Z,85.72
2022-12-14T12:00:47.729Z,85.18
2022-12-14T12:03:21.431Z,88.13
2022-12-14T12:05:49.461Z,93.01
2022-12-14T12:08:27.356Z,93.67
2022-12-14T12:11:02.862Z,92.40
2022-12-14T12:13:40.433Z,89.08
2022-12-14T12:16:23.819Z,84.47
2022-12-14T12:19:07.807Z,83.63
2022-12-14T12:21:47.375Z,82.12
2022-12-14T12:24:21.851Z,78.25
2022-12-14T12:27:02.717Z,75.61
2022-12-14T12:29:38.898Z,74.58
2022-12-14T12:32:14.278Z,73.76
2022-12-14T12:34:50.282Z,73.71
2022-12-14T12:37:28.464Z,73.45
2022-12-14T12:40:04.708Z,72.14
2022-12-14T12:42:41.949Z,74.24
2022-12-14T12:45:16.616Z,74.31
2022-12-14T12:47:50.731Z,73.61
2022-12-14T12:50:21.654Z,71.53
2022-12-14T12:53:10.687Z,69.79
2022-12-14T12:56:00.227Z,69.53
2022-12-14T12:58:35.026Z,68.86
2022-12-14T13:01:23.305Z,68.55
2022-12-14T13:04:31.280Z,68.06
2022-12-14T13:07:06.333Z,66.92
2022-12-14T13:10:06.040Z,63.10
2022-12-14T13:12:47.873Z,65.84
2022-12-14T13:15:38.668Z,65.29
2022-12-14T13:18:48.734Z,65.16
2022-12-14T13:21:41.310Z,63.96
2022-12-14T13:27:57.257Z,63.03
2022-12-14T13:31:29.181Z,63.59
2022-12-14T13:34:34.103Z,65.17
2022-12-14T13:37:32.387Z,65.11
2022-12-14T13:40:59.843Z,65.95
2022-12-14T13:44:08.562Z,65.87
2022-12-14T13:46:38.426Z,66.05
2022-12-14T13:49:19.977Z,66.52
2022-12-14T13:51:50.970Z,66.70
2022-12-14T13:54:21.670Z,66.22
2022-12-14T13:56:49.603Z,66.45
2022-12-14T13:59:31.508Z,66.74
2022-12-14T14:02:29.944Z,66.74
2022-12-14T14:05:32.648Z,66.69
2022-12-14T14:08:11.494Z,66.66
2022-12-14T14:10:42.059Z,67.09
2022-12-14T14:13:41.437Z,66.82
2022-12-14T14:16:28.406Z,67.06
2022-12-14T14:19:03.176Z,67.15
2022-12-14T14:21:58.800Z,67.37
2022-12-14T14:24:26.709Z,67.75
2022-12-14T14:27:09.234Z,67.53
2022-12-14T14:29:45.398Z,67.70
2022-12-14T14:32:32.316Z,67.73
2022-12-14T14:35:02.351Z,68.10
2022-12-14T14:37:33.809Z,68.03
2022-12-14T14:40:18.682Z,68.27
2022-12-14T14:43:08.380Z,68.43
2022-12-14T14:45:42.424Z,68.42
2022-12-14T14:48:18.580Z,68.21
2022-12-14T14:51:24.006Z,68.58
2022-12-14T14:57:37.307Z,68.56
2022-12-14T15:01:33.033Z,68.66
2022-12-14T15:03:43.994Z,69.05
2022-12-14T15:10:22.672Z,69.60
2022-12-14T15:12:53.755Z,69.74
2022-12-14T15:15:33.112Z,69.71
2022-12-14T15:18:15.184Z,69.89
2022-12-14T15:21:03.408Z,69.87
2022-12-14T15:23:36.862Z,70.04
2022-12-14T15:26:16.242Z,70.05
2022-12-14T15:28:50.372Z,70.00
2022-12-14T15:31:30.133Z,70.28
2022-12-14T15:34:07.606Z,70.78
2022-12-14T15:36:44.133Z,70.88
2022-12-14T15:39:28.820Z,70.57
2022-12-14T15:42:05.171Z,70.90
2022-12-14T15:44:35.072Z,71.12
2022-12-14T15:47:25.079Z,71.12
2022-12-14T15:49:59.794Z,70.99
2022-12-14T15:52:30.402Z,71.24
2022-12-14T15:55:35.381Z,71.42
2022-12-14T15:58:14.754Z,71.24
2022-12-14T16:01:06.233Z,70.99
2022-12-14T16:07:17.072Z,71.82
2022-12-14T16:09:55.090Z,72.11
2022-12-14T16:12:45.202Z,72.08
2022-12-14T16:16:00.455Z,72.52
2022-12-14T16:18:50.752Z,72.22
2022-12-14T16:21:33.174Z,72.33
2022-12-14T16:24:19.991Z,72.35
2022-12-14T16:27:12.593Z,72.06
2022-12-14T16:30:07.415Z,72.42
2022-12-14T16:32:36.580Z,73.07
2022-12-14T16:35:17.384Z,72.37
2022-12-14T16:37:47.396Z,72.24
2022-12-14T16:40:46.157Z,72.94
2022-12-14T16:43:31.404Z,73.00
2022-12-14T16:46:13.200Z,73.10
2022-12-14T16:49:17.654Z,72.88
2022-12-14T16:52:08.567Z,72.98
2022-12-14T16:54:42.950Z,73.19
2022-12-14T16:57:22.496Z,73.29
2022-12-14T16:59:58.875Z,73.80
2022-12-14T17:02:34.194Z,72.94
2022-12-14T17:05:14.360Z,73.91
2022-12-14T17:07:41.501Z,73.03
2022-12-14T17:10:15.052Z,73.04
2022-12-14T17:12:42.187Z,73.51
2022-12-14T17:15:16.854Z,73.57
2022-12-14T17:17:50.062Z,73.78
2022-12-14T17:20:22.781Z,73.98
2022-12-14T17:22:50.422Z,73.75
2022-12-14T17:25:22.003Z,74.00
2022-12-14T17:27:49.508Z,73.92
2022-12-14T17:30:19.472Z,74.21
2022-12-14T17:32:54.250Z,74.36
2022-12-14T17:35:25.951Z,74.36
2022-12-14T17:37:53.258Z,73.91
2022-12-14T17:40:22.522Z,74.22
2022-12-14T17:42:53.952Z,74.23
2022-12-14T17:45:23.173Z,74.54
2022-12-14T17:47:52.880Z,74.88
2022-12-14T17:50:20.587Z,74.92
2022-12-14T17:52:48.457Z,74.59
2022-12-14T17:55:17.686Z,74.63
2022-12-14T17:57:47.815Z,74.55
2022-12-14T18:00:19.793Z,74.75
2022-12-14T18:02:46.744Z,75.26
2022-12-14T18:05:21.499Z,75.06
2022-12-14T18:07:50.230Z,75.01
2022-12-14T18:10:18.058Z,75.13
2022-12-14T18:12:50.905Z,75.53
2022-12-14T18:15:21.454Z,75.43
2022-12-14T18:17:50.679Z,75.38
2022-12-14T18:20:23.806Z,76.29
2022-12-14T18:22:51.518Z,75.60
2022-12-14T18:25:30.818Z,75.69
2022-12-14T18:27:58.034Z,75.52
2022-12-14T18:30:25.204Z,75.84
2022-12-14T18:32:52.620Z,75.73
2022-12-14T18:35:34.869Z,76.09
2022-12-14T18:38:02.228Z,76.15
2022-12-14T18:40:33.329Z,75.76
2022-12-14T18:43:02.611Z,77.42
2022-12-14T18:45:35.872Z,76.11
2022-12-14T18:48:07.099Z,76.41
2022-12-14T18:50:42.925Z,77.51
2022-12-14T18:53:17.921Z,76.56
2022-12-14T18:55:58.590Z,76.46
2022-12-14T18:58:33.985Z,76.71
2022-12-14T19:01:06.970Z,76.27
2022-12-14T19:03:50.598Z,76.73
2022-12-14T19:09:20.191Z,76.16
2022-12-14T19:11:49.326Z,76.28
2022-12-14T19:14:20.609Z,76.52
2022-12-14T19:16:47.303Z,77.12
2022-12-14T19:19:15.854Z,76.99
2022-12-14T19:21:45.689Z,76.86
2022-12-14T19:24:15.668Z,76.73
2022-12-14T19:26:52.998Z,76.31
2022-12-14T19:29:22.900Z,76.56
2022-12-14T19:32:04.834Z,76.89
2022-12-14T19:34:32.518Z,77.09
2022-12-14T19:37:06.343Z,77.08
2022-12-14T19:39:40.564Z,77.68
2022-12-14T19:42:09.483Z,77.35
2022-12-14T19:44:36.909Z,78.02
2022-12-14T19:47:15.131Z,78.14
2022-12-14T19:49:41.935Z,77.91
2022-12-14T19:52:10.292Z,78.10
2022-12-14T19:54:48.205Z,78.20
2022-12-14T19:57:15.111Z,77.85
2022-12-14T19:59:42.198Z,78.27
2022-12-14T20:02:12.172Z,78.29
2022-12-14T20:04:47.958Z,77.96
2022-12-14T20:07:53.319Z,77.75
2022-12-14T20:10:18.031Z,78.47
2022-12-14T20:12:58.296Z,78.15
2022-12-14T20:16:24.063Z,78.39
2022-12-14T20:19:21.969Z,78.76
2022-12-14T20:21:50.422Z,78.15
2022-12-14T20:24:31.747Z,78.11
2022-12-14T20:27:11.374Z,78.16
2022-12-14T20:33:08.833Z,78.41
2022-12-14T20:35:54.326Z,78.21
2022-12-14T20:38:31.050Z,78.28
2022-12-14T20:41:17.904Z,78.54
2022-12-14T20:43:48.460Z,78.61
2022-12-14T20:46:41.136Z,78.64
2022-12-14T20:49:34.483Z,78.77
2022-12-14T20:52:22.870Z,79.12
2022-12-14T20:54:52.123Z,78.71
2022-12-14T20:57:29.690Z,79.19
2022-12-14T21:00:05.073Z,78.65
2022-12-14T21:02:32.521Z,79.30
2022-12-14T21:05:05.581Z,79.15
2022-12-14T21:07:35.552Z,79.26
2022-12-14T21:10:09.844Z,79.63
2022-12-14T21:13:13.372Z,79.73
2022-12-14T21:27:55.890Z,79.95
2022-12-14T21:30:48.815Z,80.21
2022-12-14T21:33:50.303Z,80.26
2022-12-14T21:36:25.447Z,80.25
2022-12-14T21:39:00.860Z,80.62
2022-12-14T21:41:37.932Z,80.67
2022-12-14T21:44:11.016Z,81.05
2022-12-14T21:49:44.032Z,81.66
2022-12-14T21:52:20.310Z,82.21
2022-12-14T21:54:54.932Z,82.53
2022-12-14T21:57:26.265Z,82.15
2022-12-14T21:59:55.980Z,82.16
2022-12-14T22:02:25.001Z,82.20
2022-12-14T22:04:53.561Z,82.44
2022-12-14T22:07:21.103Z,82.98
2022-12-14T22:09:49.685Z,82.83
2022-12-14T22:12:22.900Z,83.99
2022-12-14T22:14:55.341Z,84.60
2022-12-14T22:17:24.342Z,84.94
2022-12-14T22:19:51.210Z,84.77
2022-12-14T22:22:23.175Z,86.71
2022-12-14T22:24:53.773Z,86.24
2022-12-14T22:27:20.538Z,86.59
2022-12-14T22:29:52.184Z,86.56
2022-12-14T22:32:19.138Z,87.01
2022-12-14T22:34:48.745Z,86.11
2022-12-14T22:37:16.007Z,85.94
2022-12-14T22:39:47.757Z,86.19
2022-12-14T22:42:14.570Z,86.58
2022-12-14T22:44:41.529Z,86.39
2022-12-14T22:47:11.282Z,86.53
2022-12-14T22:49:43.035Z,86.53
2022-12-14T22:52:12.919Z,87.26
2022-12-14T22:54:39.945Z,86.43
2022-12-14T22:57:19.002Z,86.16
2022-12-14T22:59:52.392Z,86.31
2022-12-14T23:02:22.439Z,86.74
2022-12-14T23:04:52.825Z,86.80
2022-12-14T23:07:22.183Z,86.93
2022-12-14T23:09:50.729Z,86.76
2022-12-14T23:12:21.843Z,86.91
2022-12-14T23:14:49.290Z,86.97
2022-12-14T23:17:18.714Z,87.02
2022-12-14T23:19:47.767Z,87.14
2022-12-14T23:22:18.750Z,87.54
2022-12-14T23:24:49.106Z,87.43
2022-12-14T23:27:28.850Z,86.84
2022-12-14T23:29:58.686Z,87.09
2022-12-14T23:32:25.751Z,88.15
2022-12-14T23:35:04.238Z,88.50
2022-12-14T23:37:42.713Z,88.32
2022-12-14T23:40:14.148Z,88.83
2022-12-14T23:42:49.437Z,88.41
2022-12-14T23:45:27.543Z,88.68
2022-12-14T23:48:03.414Z,88.63
2022-12-14T23:50:33.420Z,87.67
2022-12-14T23:53:10.606Z,88.35
2022-12-14T23:55:43.406Z,88.10
2022-12-14T23:58:14.726Z,88.16
